sensor_id;sensor_type;location;lat;lon;timestamp;pressure;altitude;pressure_sealevel;temperature;humidity
41230;BME280;26964;50.428;19.218;2024-01-30T00:00:01;1038.1;;;-1.2;77.9
41230;BME280;26964;50.428;19.218;2024-01-30T00:01:01;1038.2;;;-1.2;77.9
41230;BME280;26964;50.428;19.218;2024-01-30T00:02:01;1038.2;;;-1.3;77.9
41230;BME280;26964;50.428;19.218;2024-01-30T00:03:01;1038.1;;;-1.3;77.9
41230;BME280;26964;50.428;19.218;2024-01-30T00:04:01;1038.1;;;-1.3;77.9
41230;BME280;26964;50.428;19.218;2024-01-30T00:05:02;1038.2;;;-1.3;77.9
41230;BME280;26964;50.428;19.218;2024-01-30T00:06:03;1038.2;;;-1.3;77.9
41230;BME280;26964;50.428;19.218;2024-01-30T00:07:01;1038.1;;;-1.3;77.9
41230;BME280;26964;50.428;19.218;2024-01-30T00:08:01;1038.1;;;-1.3;77.9
41230;BME280;26964;50.428;19.218;2024-01-30T00:09:01;1038.1;;;-1.3;77.9
41230;BME280;26964;50.428;19.218;2024-01-30T00:10:01;1038.2;;;-1.3;77.9
41230;BME280;26964;50.428;19.218;2024-01-30T00:11:01;1038.0;;;-1.3;77.9
41230;BME280;26964;50.428;19.218;2024-01-30T00:12:01;1038.0;;;-1.3;78.0
41230;BME280;26964;50.428;19.218;2024-01-30T00:13:04;1038.1;;;-1.3;77.9
41230;BME280;26964;50.428;19.218;2024-01-30T00:14:01;1038.1;;;-1.3;77.9
41230;BME280;26964;50.428;19.218;2024-01-30T00:15:01;1038.0;;;-1.3;77.9
41230;BME280;26964;50.428;19.218;2024-01-30T00:16:01;1038.1;;;-1.3;77.9
41230;BME280;26964;50.428;19.218;2024-01-30T00:17:01;1038.0;;;-1.4;77.9
41230;BME280;26964;50.428;19.218;2024-01-30T00:18:01;1038.0;;;-1.4;77.9
41230;BME280;26964;50.428;19.218;2024-01-30T00:19:01;1038.0;;;-1.4;77.9
41230;BME280;26964;50.428;19.218;2024-01-30T00:20:01;1038.0;;;-1.4;77.9
41230;BME280;26964;50.428;19.218;2024-01-30T00:21:01;1038.0;;;-1.4;77.9
41230;BME280;26964;50.428;19.218;2024-01-30T00:22:01;1038.0;;;-1.4;77.9
41230;BME280;26964;50.428;19.218;2024-01-30T00:23:01;1038.0;;;-1.4;77.9
41230;BME280;26964;50.428;19.218;2024-01-30T00:24:01;1038.0;;;-1.4;77.9
41230;BME280;26964;50.428;19.218;2024-01-30T00:25:01;1038.0;;;-1.4;78.0
41230;BME280;26964;50.428;19.218;2024-01-30T00:26:01;1038.1;;;-1.4;78.0
41230;BME280;26964;50.428;19.218;2024-01-30T00:27:01;1038.1;;;-1.4;78.0
41230;BME280;26964;50.428;19.218;2024-01-30T00:28:01;1038.1;;;-1.4;78.0
41230;BME280;26964;50.428;19.218;2024-01-30T00:29:02;1038.1;;;-1.4;78.0
41230;BME280;26964;50.428;19.218;2024-01-30T00:30:01;1038.1;;;-1.4;78.0
41230;BME280;26964;50.428;19.218;2024-01-30T00:31:01;1038.1;;;-1.4;78.0
41230;BME280;26964;50.428;19.218;2024-01-30T00:32:01;1038.2;;;-1.4;78.0
41230;BME280;26964;50.428;19.218;2024-01-30T00:33:01;1038.1;;;-1.4;78.0
41230;BME280;26964;50.428;19.218;2024-01-30T00:34:05;1038.1;;;-1.4;78.0
41230;BME280;26964;50.428;19.218;2024-01-30T00:35:01;1038.1;;;-1.4;78.0
41230;BME280;26964;50.428;19.218;2024-01-30T00:36:02;1038.3;;;-1.4;78.0
41230;BME280;26964;50.428;19.218;2024-01-30T00:37:01;1038.1;;;-1.5;78.0
41230;BME280;26964;50.428;19.218;2024-01-30T00:38:01;1038.1;;;-1.5;78.0
41230;BME280;26964;50.428;19.218;2024-01-30T00:39:01;1038.1;;;-1.5;78.0
41230;BME280;26964;50.428;19.218;2024-01-30T00:40:01;1038.1;;;-1.5;78.0
41230;BME280;26964;50.428;19.218;2024-01-30T00:41:01;1038.1;;;-1.5;78.0
41230;BME280;26964;50.428;19.218;2024-01-30T00:42:01;1038.1;;;-1.5;78.0
41230;BME280;26964;50.428;19.218;2024-01-30T00:43:01;1038.1;;;-1.5;78.0
41230;BME280;26964;50.428;19.218;2024-01-30T00:44:01;1038.1;;;-1.5;78.0
41230;BME280;26964;50.428;19.218;2024-01-30T00:45:01;1038.2;;;-1.5;78.1
41230;BME280;26964;50.428;19.218;2024-01-30T00:46:02;1038.1;;;-1.5;78.1
41230;BME280;26964;50.428;19.218;2024-01-30T00:47:01;1038.1;;;-1.5;78.1
41230;BME280;26964;50.428;19.218;2024-01-30T00:48:01;1038.0;;;-1.5;78.1
41230;BME280;26964;50.428;19.218;2024-01-30T00:49:01;1038.0;;;-1.5;78.1
41230;BME280;26964;50.428;19.218;2024-01-30T00:50:01;1038.1;;;-1.5;78.1
41230;BME280;26964;50.428;19.218;2024-01-30T00:51:01;1038.1;;;-1.5;78.1
41230;BME280;26964;50.428;19.218;2024-01-30T00:52:01;1038.1;;;-1.5;78.1
41230;BME280;26964;50.428;19.218;2024-01-30T00:53:01;1038.0;;;-1.5;78.1
41230;BME280;26964;50.428;19.218;2024-01-30T00:54:01;1038.1;;;-1.5;78.1
41230;BME280;26964;50.428;19.218;2024-01-30T00:55:05;1038.1;;;-1.5;78.1
41230;BME280;26964;50.428;19.218;2024-01-30T00:56:01;1038.1;;;-1.5;78.1
41230;BME280;26964;50.428;19.218;2024-01-30T00:57:01;1038.1;;;-1.5;78.1
41230;BME280;26964;50.428;19.218;2024-01-30T00:58:01;1038.0;;;-1.5;78.1
41230;BME280;26964;50.428;19.218;2024-01-30T00:59:01;1038.1;;;-1.5;78.1
41230;BME280;26964;50.428;19.218;2024-01-30T01:00:02;1038.0;;;-1.5;78.1
41230;BME280;26964;50.428;19.218;2024-01-30T01:01:01;1038.0;;;-1.5;78.1
41230;BME280;26964;50.428;19.218;2024-01-30T01:02:01;1038.0;;;-1.5;78.1
41230;BME280;26964;50.428;19.218;2024-01-30T01:03:01;1038.0;;;-1.5;78.1
41230;BME280;26964;50.428;19.218;2024-01-30T01:04:01;1038.0;;;-1.5;78.1
41230;BME280;26964;50.428;19.218;2024-01-30T01:05:02;1038.0;;;-1.6;78.1
41230;BME280;26964;50.428;19.218;2024-01-30T01:06:01;1038.0;;;-1.6;78.1
41230;BME280;26964;50.428;19.218;2024-01-30T01:07:01;1037.9;;;-1.6;78.1
41230;BME280;26964;50.428;19.218;2024-01-30T01:08:01;1037.9;;;-1.6;78.1
41230;BME280;26964;50.428;19.218;2024-01-30T01:09:01;1037.9;;;-1.6;78.1
41230;BME280;26964;50.428;19.218;2024-01-30T01:10:02;1037.9;;;-1.6;78.1
41230;BME280;26964;50.428;19.218;2024-01-30T01:11:01;1037.8;;;-1.6;78.2
41230;BME280;26964;50.428;19.218;2024-01-30T01:12:01;1037.9;;;-1.6;78.1
41230;BME280;26964;50.428;19.218;2024-01-30T01:13:01;1037.9;;;-1.6;78.2
41230;BME280;26964;50.428;19.218;2024-01-30T01:14:01;1037.8;;;-1.6;78.2
41230;BME280;26964;50.428;19.218;2024-01-30T01:15:01;1037.8;;;-1.6;78.2
41230;BME280;26964;50.428;19.218;2024-01-30T01:16:04;1037.8;;;-1.6;78.2
41230;BME280;26964;50.428;19.218;2024-01-30T01:17:01;1037.8;;;-1.6;78.2
41230;BME280;26964;50.428;19.218;2024-01-30T01:18:01;1037.7;;;-1.6;78.2
41230;BME280;26964;50.428;19.218;2024-01-30T01:19:01;1037.8;;;-1.6;78.2
41230;BME280;26964;50.428;19.218;2024-01-30T01:20:02;1037.7;;;-1.6;78.2
41230;BME280;26964;50.428;19.218;2024-01-30T01:21:01;1037.8;;;-1.6;78.2
41230;BME280;26964;50.428;19.218;2024-01-30T01:22:01;1037.8;;;-1.6;78.2
41230;BME280;26964;50.428;19.218;2024-01-30T01:23:01;1037.8;;;-1.6;78.2
41230;BME280;26964;50.428;19.218;2024-01-30T01:24:01;1037.8;;;-1.6;78.2
41230;BME280;26964;50.428;19.218;2024-01-30T01:25:01;1037.7;;;-1.6;78.2
41230;BME280;26964;50.428;19.218;2024-01-30T01:26:01;1037.7;;;-1.6;78.2
41230;BME280;26964;50.428;19.218;2024-01-30T01:27:01;1037.7;;;-1.6;78.2
41230;BME280;26964;50.428;19.218;2024-01-30T01:28:01;1037.7;;;-1.6;78.2
41230;BME280;26964;50.428;19.218;2024-01-30T01:29:01;1037.6;;;-1.6;78.2
41230;BME280;26964;50.428;19.218;2024-01-30T01:30:01;1037.7;;;-1.6;78.2
41230;BME280;26964;50.428;19.218;2024-01-30T01:31:01;1037.6;;;-1.6;78.2
41230;BME280;26964;50.428;19.218;2024-01-30T01:32:03;1037.7;;;-1.6;78.2
41230;BME280;26964;50.428;19.218;2024-01-30T01:33:01;1037.7;;;-1.6;78.2
41230;BME280;26964;50.428;19.218;2024-01-30T01:34:01;1037.5;;;-1.6;78.2
41230;BME280;26964;50.428;19.218;2024-01-30T01:35:01;1037.6;;;-1.6;78.3
41230;BME280;26964;50.428;19.218;2024-01-30T01:36:01;1037.6;;;-1.6;78.3
41230;BME280;26964;50.428;19.218;2024-01-30T01:37:04;1037.6;;;-1.6;78.3
41230;BME280;26964;50.428;19.218;2024-01-30T01:38:01;1037.6;;;-1.6;78.2
41230;BME280;26964;50.428;19.218;2024-01-30T01:39:01;1037.6;;;-1.6;78.2
41230;BME280;26964;50.428;19.218;2024-01-30T01:40:01;1037.6;;;-1.7;78.3
41230;BME280;26964;50.428;19.218;2024-01-30T01:41:01;1037.5;;;-1.7;78.3
41230;BME280;26964;50.428;19.218;2024-01-30T01:42:00;1037.6;;;-1.7;78.3
41230;BME280;26964;50.428;19.218;2024-01-30T01:43:04;1037.5;;;-1.7;78.3
41230;BME280;26964;50.428;19.218;2024-01-30T01:44:01;1037.5;;;-1.7;78.3
41230;BME280;26964;50.428;19.218;2024-01-30T01:45:03;1037.6;;;-1.7;78.3
41230;BME280;26964;50.428;19.218;2024-01-30T01:46:01;1037.6;;;-1.7;78.3
41230;BME280;26964;50.428;19.218;2024-01-30T01:47:01;1037.7;;;-1.7;78.3
41230;BME280;26964;50.428;19.218;2024-01-30T01:48:01;1037.6;;;-1.7;78.4
41230;BME280;26964;50.428;19.218;2024-01-30T01:49:02;1037.6;;;-1.7;78.3
41230;BME280;26964;50.428;19.218;2024-01-30T01:50:01;1037.6;;;-1.7;78.3
41230;BME280;26964;50.428;19.218;2024-01-30T01:51:01;1037.6;;;-1.7;78.3
41230;BME280;26964;50.428;19.218;2024-01-30T01:52:01;1037.6;;;-1.7;78.3
41230;BME280;26964;50.428;19.218;2024-01-30T01:53:01;1037.6;;;-1.7;78.4
41230;BME280;26964;50.428;19.218;2024-01-30T01:54:04;1037.6;;;-1.7;78.4
41230;BME280;26964;50.428;19.218;2024-01-30T01:55:01;1037.6;;;-1.7;78.4
41230;BME280;26964;50.428;19.218;2024-01-30T01:56:01;1037.6;;;-1.7;78.4
41230;BME280;26964;50.428;19.218;2024-01-30T01:57:01;1037.7;;;-1.7;78.4
41230;BME280;26964;50.428;19.218;2024-01-30T01:58:05;1037.7;;;-1.7;78.4
41230;BME280;26964;50.428;19.218;2024-01-30T01:59:07;1037.7;;;-1.7;78.3
41230;BME280;26964;50.428;19.218;2024-01-30T02:00:01;1037.7;;;-1.7;78.3
41230;BME280;26964;50.428;19.218;2024-01-30T02:01:01;1037.7;;;-1.7;78.3
41230;BME280;26964;50.428;19.218;2024-01-30T02:02:02;1037.7;;;-1.7;78.3
41230;BME280;26964;50.428;19.218;2024-01-30T02:03:02;1037.7;;;-1.8;78.3
41230;BME280;26964;50.428;19.218;2024-01-30T02:04:01;1037.6;;;-1.8;78.3
41230;BME280;26964;50.428;19.218;2024-01-30T02:05:01;1037.7;;;-1.8;78.3
41230;BME280;26964;50.428;19.218;2024-01-30T02:06:01;1037.6;;;-1.8;78.2
41230;BME280;26964;50.428;19.218;2024-01-30T02:07:01;1037.7;;;-1.8;78.3
41230;BME280;26964;50.428;19.218;2024-01-30T02:08:01;1037.6;;;-1.8;78.2
41230;BME280;26964;50.428;19.218;2024-01-30T02:09:01;1037.6;;;-1.8;78.2
41230;BME280;26964;50.428;19.218;2024-01-30T02:10:01;1037.6;;;-1.8;78.3
41230;BME280;26964;50.428;19.218;2024-01-30T02:11:01;1037.6;;;-1.8;78.3
41230;BME280;26964;50.428;19.218;2024-01-30T02:12:01;1037.7;;;-1.9;78.2
41230;BME280;26964;50.428;19.218;2024-01-30T02:13:01;1037.5;;;-1.9;78.3
41230;BME280;26964;50.428;19.218;2024-01-30T02:14:03;1037.6;;;-1.9;78.3
41230;BME280;26964;50.428;19.218;2024-01-30T02:15:00;1037.5;;;-1.9;78.3
41230;BME280;26964;50.428;19.218;2024-01-30T02:16:00;1037.6;;;-1.9;78.3
41230;BME280;26964;50.428;19.218;2024-01-30T02:17:01;1037.6;;;-1.9;78.3
41230;BME280;26964;50.428;19.218;2024-01-30T02:18:02;1037.5;;;-1.9;78.3
41230;BME280;26964;50.428;19.218;2024-01-30T02:19:04;1037.5;;;-1.9;78.3
41230;BME280;26964;50.428;19.218;2024-01-30T02:20:01;1037.5;;;-1.9;78.3
41230;BME280;26964;50.428;19.218;2024-01-30T02:21:04;1037.4;;;-1.9;78.3
41230;BME280;26964;50.428;19.218;2024-01-30T02:22:01;1037.5;;;-1.9;78.3
41230;BME280;26964;50.428;19.218;2024-01-30T02:23:00;1037.4;;;-1.9;78.4
41230;BME280;26964;50.428;19.218;2024-01-30T02:24:01;1037.5;;;-1.9;78.4
41230;BME280;26964;50.428;19.218;2024-01-30T02:25:00;1037.4;;;-2.0;78.4
41230;BME280;26964;50.428;19.218;2024-01-30T02:26:00;1037.5;;;-2.0;78.3
41230;BME280;26964;50.428;19.218;2024-01-30T02:27:00;1037.4;;;-2.0;78.3
41230;BME280;26964;50.428;19.218;2024-01-30T02:28:00;1037.3;;;-2.0;78.4
41230;BME280;26964;50.428;19.218;2024-01-30T02:29:00;1037.5;;;-2.0;78.4
41230;BME280;26964;50.428;19.218;2024-01-30T02:30:00;1037.5;;;-2.0;78.4
41230;BME280;26964;50.428;19.218;2024-01-30T02:31:00;1037.4;;;-2.0;78.4
41230;BME280;26964;50.428;19.218;2024-01-30T02:32:00;1037.4;;;-2.0;78.4
41230;BME280;26964;50.428;19.218;2024-01-30T02:33:00;1037.5;;;-2.0;78.4
41230;BME280;26964;50.428;19.218;2024-01-30T02:34:01;1037.4;;;-2.0;78.4
41230;BME280;26964;50.428;19.218;2024-01-30T02:35:00;1037.4;;;-2.0;78.5
41230;BME280;26964;50.428;19.218;2024-01-30T02:36:00;1037.4;;;-2.0;78.5
41230;BME280;26964;50.428;19.218;2024-01-30T02:37:00;1037.5;;;-2.0;78.5
41230;BME280;26964;50.428;19.218;2024-01-30T02:38:01;1037.5;;;-2.0;78.5
41230;BME280;26964;50.428;19.218;2024-01-30T02:39:02;1037.6;;;-2.0;78.5
41230;BME280;26964;50.428;19.218;2024-01-30T02:40:00;1037.5;;;-2.0;78.5
41230;BME280;26964;50.428;19.218;2024-01-30T02:41:00;1037.5;;;-2.0;78.5
41230;BME280;26964;50.428;19.218;2024-01-30T02:42:00;1037.4;;;-2.0;78.5
41230;BME280;26964;50.428;19.218;2024-01-30T02:43:01;1037.5;;;-2.0;78.5
41230;BME280;26964;50.428;19.218;2024-01-30T02:44:00;1037.6;;;-2.0;78.5
41230;BME280;26964;50.428;19.218;2024-01-30T02:45:01;1037.5;;;-2.0;78.5
41230;BME280;26964;50.428;19.218;2024-01-30T02:46:00;1037.5;;;-2.0;78.5
41230;BME280;26964;50.428;19.218;2024-01-30T02:47:01;1037.6;;;-2.0;78.5
41230;BME280;26964;50.428;19.218;2024-01-30T02:48:00;1037.5;;;-2.0;78.5
41230;BME280;26964;50.428;19.218;2024-01-30T02:49:00;1037.4;;;-2.0;78.5
41230;BME280;26964;50.428;19.218;2024-01-30T02:50:00;1037.5;;;-2.0;78.6
41230;BME280;26964;50.428;19.218;2024-01-30T02:51:00;1037.5;;;-2.0;78.6
41230;BME280;26964;50.428;19.218;2024-01-30T02:52:00;1037.5;;;-2.0;78.6
41230;BME280;26964;50.428;19.218;2024-01-30T02:53:00;1037.5;;;-2.0;78.6
41230;BME280;26964;50.428;19.218;2024-01-30T02:54:00;1037.4;;;-2.0;78.6
41230;BME280;26964;50.428;19.218;2024-01-30T02:55:01;1037.4;;;-2.0;78.6
41230;BME280;26964;50.428;19.218;2024-01-30T02:56:01;1037.5;;;-2.0;78.6
41230;BME280;26964;50.428;19.218;2024-01-30T02:57:00;1037.4;;;-2.0;78.6
41230;BME280;26964;50.428;19.218;2024-01-30T02:58:00;1037.4;;;-2.0;78.6
41230;BME280;26964;50.428;19.218;2024-01-30T02:59:00;1037.4;;;-2.0;78.6
41230;BME280;26964;50.428;19.218;2024-01-30T03:00:03;1037.5;;;-2.0;78.6
41230;BME280;26964;50.428;19.218;2024-01-30T03:01:00;1037.4;;;-2.0;78.6
41230;BME280;26964;50.428;19.218;2024-01-30T03:02:00;1037.5;;;-2.0;78.6
41230;BME280;26964;50.428;19.218;2024-01-30T03:03:00;1037.5;;;-2.0;78.6
41230;BME280;26964;50.428;19.218;2024-01-30T03:04:00;1037.5;;;-2.0;78.6
41230;BME280;26964;50.428;19.218;2024-01-30T03:05:01;1037.4;;;-2.0;78.6
41230;BME280;26964;50.428;19.218;2024-01-30T03:06:01;1037.4;;;-2.0;78.7
41230;BME280;26964;50.428;19.218;2024-01-30T03:07:01;1037.4;;;-2.0;78.6
41230;BME280;26964;50.428;19.218;2024-01-30T03:08:01;1037.6;;;-2.0;78.6
41230;BME280;26964;50.428;19.218;2024-01-30T03:09:01;1037.4;;;-2.0;78.6
41230;BME280;26964;50.428;19.218;2024-01-30T03:10:01;1037.4;;;-2.0;78.6
41230;BME280;26964;50.428;19.218;2024-01-30T03:11:01;1037.5;;;-2.0;78.6
41230;BME280;26964;50.428;19.218;2024-01-30T03:12:01;1037.4;;;-2.0;78.6
41230;BME280;26964;50.428;19.218;2024-01-30T03:13:01;1037.5;;;-2.0;78.6
41230;BME280;26964;50.428;19.218;2024-01-30T03:14:01;1037.5;;;-2.0;78.6
41230;BME280;26964;50.428;19.218;2024-01-30T03:15:01;1037.5;;;-2.0;78.6
41230;BME280;26964;50.428;19.218;2024-01-30T03:16:01;1037.5;;;-2.0;78.6
41230;BME280;26964;50.428;19.218;2024-01-30T03:17:01;1037.4;;;-2.0;78.6
41230;BME280;26964;50.428;19.218;2024-01-30T03:18:01;1037.5;;;-2.0;78.6
41230;BME280;26964;50.428;19.218;2024-01-30T03:19:01;1037.4;;;-2.0;78.6
41230;BME280;26964;50.428;19.218;2024-01-30T03:20:01;1037.3;;;-2.0;78.6
41230;BME280;26964;50.428;19.218;2024-01-30T03:21:02;1037.3;;;-2.0;78.6
41230;BME280;26964;50.428;19.218;2024-01-30T03:22:01;1037.4;;;-2.0;78.6
41230;BME280;26964;50.428;19.218;2024-01-30T03:23:00;1037.4;;;-2.0;78.6
41230;BME280;26964;50.428;19.218;2024-01-30T03:24:01;1037.4;;;-2.0;78.7
41230;BME280;26964;50.428;19.218;2024-01-30T03:25:01;1037.4;;;-2.0;78.7
41230;BME280;26964;50.428;19.218;2024-01-30T03:26:01;1037.3;;;-2.0;78.7
41230;BME280;26964;50.428;19.218;2024-01-30T03:27:01;1037.3;;;-2.0;78.7
41230;BME280;26964;50.428;19.218;2024-01-30T03:28:01;1037.3;;;-2.0;78.7
41230;BME280;26964;50.428;19.218;2024-01-30T03:29:01;1037.3;;;-2.0;78.7
41230;BME280;26964;50.428;19.218;2024-01-30T03:30:01;1037.3;;;-2.0;78.8
41230;BME280;26964;50.428;19.218;2024-01-30T03:31:01;1037.4;;;-2.0;78.7
41230;BME280;26964;50.428;19.218;2024-01-30T03:32:01;1037.4;;;-2.0;78.7
41230;BME280;26964;50.428;19.218;2024-01-30T03:33:01;1037.4;;;-2.0;78.8
41230;BME280;26964;50.428;19.218;2024-01-30T03:34:00;1037.3;;;-2.0;78.8
41230;BME280;26964;50.428;19.218;2024-01-30T03:35:00;1037.3;;;-2.0;78.8
41230;BME280;26964;50.428;19.218;2024-01-30T03:36:04;1037.4;;;-2.0;78.8
41230;BME280;26964;50.428;19.218;2024-01-30T03:37:01;1037.4;;;-2.0;78.7
41230;BME280;26964;50.428;19.218;2024-01-30T03:38:00;1037.4;;;-2.0;78.7
41230;BME280;26964;50.428;19.218;2024-01-30T03:39:01;1037.3;;;-2.0;78.7
41230;BME280;26964;50.428;19.218;2024-01-30T03:40:01;1037.3;;;-2.0;78.7
41230;BME280;26964;50.428;19.218;2024-01-30T03:41:00;1037.3;;;-2.0;78.7
41230;BME280;26964;50.428;19.218;2024-01-30T03:42:02;1037.4;;;-2.0;78.7
41230;BME280;26964;50.428;19.218;2024-01-30T03:43:01;1037.3;;;-2.0;78.7
41230;BME280;26964;50.428;19.218;2024-01-30T03:44:01;1037.3;;;-2.1;78.7
41230;BME280;26964;50.428;19.218;2024-01-30T03:45:01;1037.3;;;-2.1;78.7
41230;BME280;26964;50.428;19.218;2024-01-30T03:46:00;1037.4;;;-2.1;78.7
41230;BME280;26964;50.428;19.218;2024-01-30T03:47:01;1037.3;;;-2.1;78.7
41230;BME280;26964;50.428;19.218;2024-01-30T03:48:01;1037.3;;;-2.1;78.7
41230;BME280;26964;50.428;19.218;2024-01-30T03:49:00;1037.2;;;-2.1;78.7
41230;BME280;26964;50.428;19.218;2024-01-30T03:50:00;1037.3;;;-2.1;78.7
41230;BME280;26964;50.428;19.218;2024-01-30T03:51:01;1037.2;;;-2.1;78.7
41230;BME280;26964;50.428;19.218;2024-01-30T03:52:00;1037.3;;;-2.1;78.7
41230;BME280;26964;50.428;19.218;2024-01-30T03:53:01;1037.3;;;-2.1;78.7
41230;BME280;26964;50.428;19.218;2024-01-30T03:54:01;1037.2;;;-2.1;78.7
41230;BME280;26964;50.428;19.218;2024-01-30T03:55:00;1037.2;;;-2.1;78.6
41230;BME280;26964;50.428;19.218;2024-01-30T03:56:01;1037.3;;;-2.1;78.6
41230;BME280;26964;50.428;19.218;2024-01-30T03:57:00;1037.3;;;-2.1;78.6
41230;BME280;26964;50.428;19.218;2024-01-30T03:58:01;1037.3;;;-2.1;78.6
41230;BME280;26964;50.428;19.218;2024-01-30T03:59:00;1037.2;;;-2.2;78.6
41230;BME280;26964;50.428;19.218;2024-01-30T04:00:00;1037.3;;;-2.1;78.7
41230;BME280;26964;50.428;19.218;2024-01-30T04:01:00;1037.3;;;-2.2;78.7
41230;BME280;26964;50.428;19.218;2024-01-30T04:02:00;1037.2;;;-2.2;78.7
41230;BME280;26964;50.428;19.218;2024-01-30T04:03:03;1037.3;;;-2.2;78.7
41230;BME280;26964;50.428;19.218;2024-01-30T04:04:00;1037.4;;;-2.2;78.7
41230;BME280;26964;50.428;19.218;2024-01-30T04:05:00;1037.3;;;-2.2;78.7
41230;BME280;26964;50.428;19.218;2024-01-30T04:06:00;1037.3;;;-2.2;78.7
41230;BME280;26964;50.428;19.218;2024-01-30T04:07:00;1037.3;;;-2.2;78.7
41230;BME280;26964;50.428;19.218;2024-01-30T04:08:00;1037.3;;;-2.2;78.7
41230;BME280;26964;50.428;19.218;2024-01-30T04:09:00;1037.4;;;-2.2;78.7
41230;BME280;26964;50.428;19.218;2024-01-30T04:10:01;1037.4;;;-2.2;78.7
41230;BME280;26964;50.428;19.218;2024-01-30T04:11:04;1037.3;;;-2.2;78.7
41230;BME280;26964;50.428;19.218;2024-01-30T04:12:00;1037.3;;;-2.2;78.7
41230;BME280;26964;50.428;19.218;2024-01-30T04:13:00;1037.3;;;-2.2;78.7
41230;BME280;26964;50.428;19.218;2024-01-30T04:14:00;1037.3;;;-2.2;78.7
41230;BME280;26964;50.428;19.218;2024-01-30T04:15:00;1037.3;;;-2.2;78.7
41230;BME280;26964;50.428;19.218;2024-01-30T04:16:00;1037.3;;;-2.2;78.7
41230;BME280;26964;50.428;19.218;2024-01-30T04:17:00;1037.3;;;-2.2;78.7
41230;BME280;26964;50.428;19.218;2024-01-30T04:18:00;1037.3;;;-2.3;78.7
41230;BME280;26964;50.428;19.218;2024-01-30T04:19:00;1037.3;;;-2.2;78.7
41230;BME280;26964;50.428;19.218;2024-01-30T04:20:00;1037.3;;;-2.3;78.7
41230;BME280;26964;50.428;19.218;2024-01-30T04:21:00;1037.2;;;-2.3;78.7
41230;BME280;26964;50.428;19.218;2024-01-30T04:22:00;1037.3;;;-2.3;78.8
41230;BME280;26964;50.428;19.218;2024-01-30T04:23:00;1037.2;;;-2.3;78.8
41230;BME280;26964;50.428;19.218;2024-01-30T04:24:03;1037.3;;;-2.3;78.8
41230;BME280;26964;50.428;19.218;2024-01-30T04:25:00;1037.2;;;-2.3;78.8
41230;BME280;26964;50.428;19.218;2024-01-30T04:26:00;1037.3;;;-2.3;78.8
41230;BME280;26964;50.428;19.218;2024-01-30T04:27:00;1037.3;;;-2.3;78.7
41230;BME280;26964;50.428;19.218;2024-01-30T04:28:00;1037.2;;;-2.3;78.7
41230;BME280;26964;50.428;19.218;2024-01-30T04:29:00;1037.3;;;-2.3;78.7
41230;BME280;26964;50.428;19.218;2024-01-30T04:30:00;1037.4;;;-2.3;78.7
41230;BME280;26964;50.428;19.218;2024-01-30T04:31:00;1037.4;;;-2.3;78.7
41230;BME280;26964;50.428;19.218;2024-01-30T04:32:00;1037.3;;;-2.3;78.7
41230;BME280;26964;50.428;19.218;2024-01-30T04:33:00;1037.3;;;-2.3;78.7
41230;BME280;26964;50.428;19.218;2024-01-30T04:34:00;1037.4;;;-2.3;78.7
41230;BME280;26964;50.428;19.218;2024-01-30T04:35:00;1037.2;;;-2.4;78.7
41230;BME280;26964;50.428;19.218;2024-01-30T04:36:00;1037.4;;;-2.4;78.7
41230;BME280;26964;50.428;19.218;2024-01-30T04:37:00;1037.3;;;-2.4;78.8
41230;BME280;26964;50.428;19.218;2024-01-30T04:38:00;1037.3;;;-2.4;78.8
41230;BME280;26964;50.428;19.218;2024-01-30T04:39:00;1037.2;;;-2.4;78.8
41230;BME280;26964;50.428;19.218;2024-01-30T04:40:00;1037.3;;;-2.4;78.8
41230;BME280;26964;50.428;19.218;2024-01-30T04:41:01;1037.3;;;-2.4;78.8
41230;BME280;26964;50.428;19.218;2024-01-30T04:42:00;1037.3;;;-2.4;78.8
41230;BME280;26964;50.428;19.218;2024-01-30T04:43:00;1037.3;;;-2.4;78.9
41230;BME280;26964;50.428;19.218;2024-01-30T04:44:00;1037.3;;;-2.4;78.9
41230;BME280;26964;50.428;19.218;2024-01-30T04:45:02;1037.3;;;-2.4;78.9
41230;BME280;26964;50.428;19.218;2024-01-30T04:46:00;1037.3;;;-2.4;78.9
41230;BME280;26964;50.428;19.218;2024-01-30T04:47:00;1037.3;;;-2.4;78.9
41230;BME280;26964;50.428;19.218;2024-01-30T04:48:01;1037.3;;;-2.4;78.9
41230;BME280;26964;50.428;19.218;2024-01-30T04:49:00;1037.3;;;-2.4;78.9
41230;BME280;26964;50.428;19.218;2024-01-30T04:50:01;1037.2;;;-2.4;78.9
41230;BME280;26964;50.428;19.218;2024-01-30T04:51:00;1037.3;;;-2.4;78.9
41230;BME280;26964;50.428;19.218;2024-01-30T04:52:00;1037.3;;;-2.4;78.9
41230;BME280;26964;50.428;19.218;2024-01-30T04:53:01;1037.3;;;-2.4;78.9
41230;BME280;26964;50.428;19.218;2024-01-30T04:54:00;1037.2;;;-2.4;78.9
41230;BME280;26964;50.428;19.218;2024-01-30T04:55:01;1037.3;;;-2.4;78.9
41230;BME280;26964;50.428;19.218;2024-01-30T04:56:01;1037.4;;;-2.4;78.9
41230;BME280;26964;50.428;19.218;2024-01-30T04:57:01;1037.3;;;-2.4;78.9
41230;BME280;26964;50.428;19.218;2024-01-30T04:58:01;1037.4;;;-2.4;78.9
41230;BME280;26964;50.428;19.218;2024-01-30T04:58:59;1037.3;;;-2.4;78.9
41230;BME280;26964;50.428;19.218;2024-01-30T05:00:00;1037.3;;;-2.4;78.9
41230;BME280;26964;50.428;19.218;2024-01-30T05:01:00;1037.4;;;-2.4;78.9
41230;BME280;26964;50.428;19.218;2024-01-30T05:02:00;1037.3;;;-2.4;78.9
41230;BME280;26964;50.428;19.218;2024-01-30T05:03:00;1037.3;;;-2.4;78.9
41230;BME280;26964;50.428;19.218;2024-01-30T05:04:00;1037.3;;;-2.4;78.9
41230;BME280;26964;50.428;19.218;2024-01-30T05:05:00;1037.3;;;-2.4;79.0
41230;BME280;26964;50.428;19.218;2024-01-30T05:06:02;1037.4;;;-2.4;78.9
41230;BME280;26964;50.428;19.218;2024-01-30T05:06:59;1037.3;;;-2.4;78.9
41230;BME280;26964;50.428;19.218;2024-01-30T05:08:00;1037.3;;;-2.4;78.9
41230;BME280;26964;50.428;19.218;2024-01-30T05:09:00;1037.4;;;-2.4;78.9
41230;BME280;26964;50.428;19.218;2024-01-30T05:10:00;1037.2;;;-2.4;78.9
41230;BME280;26964;50.428;19.218;2024-01-30T05:11:00;1037.3;;;-2.4;78.9
41230;BME280;26964;50.428;19.218;2024-01-30T05:12:00;1037.3;;;-2.4;78.9
41230;BME280;26964;50.428;19.218;2024-01-30T05:13:00;1037.2;;;-2.4;79.0
41230;BME280;26964;50.428;19.218;2024-01-30T05:14:00;1037.3;;;-2.4;78.9
41230;BME280;26964;50.428;19.218;2024-01-30T05:15:01;1037.3;;;-2.4;78.9
41230;BME280;26964;50.428;19.218;2024-01-30T05:16:01;1037.4;;;-2.4;78.9
41230;BME280;26964;50.428;19.218;2024-01-30T05:17:00;1037.3;;;-2.4;78.9
41230;BME280;26964;50.428;19.218;2024-01-30T05:18:00;1037.4;;;-2.4;79.0
41230;BME280;26964;50.428;19.218;2024-01-30T05:19:00;1037.3;;;-2.4;79.0
41230;BME280;26964;50.428;19.218;2024-01-30T05:20:00;1037.4;;;-2.4;79.0
41230;BME280;26964;50.428;19.218;2024-01-30T05:21:01;1037.3;;;-2.4;79.0
41230;BME280;26964;50.428;19.218;2024-01-30T05:22:00;1037.3;;;-2.4;79.0
41230;BME280;26964;50.428;19.218;2024-01-30T05:23:00;1037.3;;;-2.4;79.0
41230;BME280;26964;50.428;19.218;2024-01-30T05:24:00;1037.4;;;-2.4;78.9
41230;BME280;26964;50.428;19.218;2024-01-30T05:25:00;1037.3;;;-2.4;78.9
41230;BME280;26964;50.428;19.218;2024-01-30T05:26:00;1037.4;;;-2.4;78.9
41230;BME280;26964;50.428;19.218;2024-01-30T05:27:03;1037.3;;;-2.4;78.9
41230;BME280;26964;50.428;19.218;2024-01-30T05:28:00;1037.3;;;-2.4;78.9
41230;BME280;26964;50.428;19.218;2024-01-30T05:29:00;1037.2;;;-2.4;78.9
41230;BME280;26964;50.428;19.218;2024-01-30T05:30:00;1037.4;;;-2.4;78.9